CheckWX is a tool to help pilots better visualize weather data.  It is not intended as a substitute for an official pre-flight weather briefing.

07:48:43 UTC

SBRP TAF
Leite Lopes Airport
Ribeirão Preto, Brazil
TAF SBRP 190230Z 1906/2006 11005KT CAVOK TN15/1910Z TX28/1919Z BECMG 1913/1915 34005KT BECMG 1915/1917 30005KT SCT045 BECMG 1918/1920 27005KT BECMG 1920/1922 11005KT CAVOK RMK PGQ

Jun-19@
06:00 UTC

Jun-19 @ 06:00 UTC

Jun-19@
13:00 UTC

Jun-19 @ 13:00 UTC

TAF SBRP 190230Z 1906/2006 11005KT CAVOK TN15/1910Z TX28/1919Z
Wind
  • 110° at 5 KTS
Cloud Levels
  • No significant clouds

Jun-19@
13:00 UTC

Jun-19 @ 13:00 UTC

Jun-19@
15:00 UTC

Jun-19 @ 15:00 UTC

BECMG 1913/1915 34005KT

Becoming

Becoming Conditions expected by Wed, Jun 19, 2019 @ 15:00 UTC

Wind
  • 340° at 5 KTS
Cloud Levels
  • No significant clouds

Jun-19@
15:00 UTC

Jun-19 @ 15:00 UTC

Jun-19@
18:00 UTC

Jun-19 @ 18:00 UTC

BECMG 1915/1917 30005KT SCT045

Becoming

Becoming Conditions expected by Wed, Jun 19, 2019 @ 17:00 UTC

Wind
  • 300° at 5 KTS
Cloud Levels
  • Scattered at 4,500' AGL

Jun-19@
18:00 UTC

Jun-19 @ 18:00 UTC

Jun-19@
20:00 UTC

Jun-19 @ 20:00 UTC

BECMG 1918/1920 27005KT

Becoming

Becoming Conditions expected by Wed, Jun 19, 2019 @ 20:00 UTC

Wind
  • 270° at 5 KTS
Cloud Levels
  • Scattered at 4,500' AGL

Jun-19@
20:00 UTC

Jun-19 @ 20:00 UTC

Jun-20@
06:00 UTC

Jun-20 @ 06:00 UTC

BECMG 1920/1922 11005KT CAVOK RMK PGQ

Becoming

Becoming Conditions expected by Wed, Jun 19, 2019 @ 22:00 UTC

Wind
  • 110° at 5 KTS
Conditions
No significant weather
Cloud Levels
  • No significant clouds